Time;durP1;ratioP1;P1;durP2;ratioP2;P2;SDS_P1;SDS_P2;PMS_P1;PMS_P2;Temp;Humidity;BMP_temperature;BMP_pressure;BME280_temperature;BME280_humidity;BME280_pressure;Samples;Min_cycle;Max_cycle;Signal;HPM_P1;HPM_P2
2022/01/21 00:00:31;;;;;;;7.70;1.60;;;18.40;56.10;;;;;;5935687;24;20164;-88
2022/01/21 00:02:59;;;;;;;6.43;1.75;;;18.50;56.20;;;;;;5927085;24;20239;-88
2022/01/21 00:05:42;;;;;;;4.47;1.10;;;18.40;56.10;;;;;;5939547;24;20168;-88
2022/01/21 00:08:13;;;;;;;5.20;1.60;;;18.40;56.20;;;;;;5907562;24;20185;-88
2022/01/21 00:10:44;;;;;;;4.50;1.70;;;18.40;56.10;;;;;;5946412;24;20164;-88
2022/01/21 00:13:34;;;;;;;3.00;1.20;;;18.40;56.20;;;;;;5908373;24;20162;-88
2022/01/21 00:16:10;;;;;;;4.43;1.40;;;18.40;56.10;;;;;;5932452;24;20156;-88
2022/01/21 00:18:53;;;;;;;;;;;;;;;;;;;;;
2022/01/21 00:32:09;;;;;;;5.40;1.30;;;18.40;56.10;;;;;;5890241;24;20164;-88
2022/01/21 00:34:35;;;;;;;3.55;1.50;;;18.40;56.00;;;;;;5888089;24;20169;-88
2022/01/21 00:37:08;;;;;;;4.05;1.05;;;18.40;55.90;;;;;;5887226;24;20291;-88
2022/01/21 00:39:38;;;;;;;3.95;1.23;;;18.40;56.00;;;;;;5958692;24;20156;-88
2022/01/21 00:42:27;;;;;;;4.00;1.10;;;18.30;55.70;;;;;;5936470;24;20248;-88
2022/01/21 00:44:58;;;;;;;2.85;1.15;;;18.40;56.00;;;;;;5880422;24;20191;-88
2022/01/21 00:47:29;;;;;;;3.72;1.40;;;18.40;56.00;;;;;;5877099;24;20203;-88
2022/01/21 00:49:58;;;;;;;7.40;1.60;;;18.30;55.90;;;;;;5880372;24;20151;-88
2022/01/21 00:52:30;;;;;;;5.75;1.40;;;18.30;55.70;;;;;;5876856;24;20166;-88
2022/01/21 00:55:05;;;;;;;4.50;1.42;;;18.30;56.10;;;;;;5877160;24;20175;-88
2022/01/21 00:57:35;;;;;;;4.70;1.70;;;18.40;56.00;;;;;;5904724;24;20591;-88
2022/01/21 01:00:10;;;;;;;5.45;1.35;;;18.30;56.00;;;;;;5904624;24;20255;-88
2022/01/21 01:02:50;;;;;;;3.17;1.23;;;18.20;56.00;;;;;;5932756;24;20207;-88
2022/01/21 01:05:20;;;;;;;4.07;1.20;;;18.30;56.10;;;;;;5910539;24;20161;-89
2022/01/21 01:07:55;;;;;;;3.45;1.23;;;18.20;56.00;;;;;;5909230;24;20200;-88
2022/01/21 01:21:44;;;;;;;;;;;;;;;;;;;;;
2022/01/21 01:27:36;;;;;;;3.53;1.10;;;18.20;56.00;;;;;;5972664;23;20614;-88
2022/01/21 01:30:02;;;;;;;3.17;1.38;;;18.30;56.00;;;;;;6020165;23;20155;-88
2022/01/21 01:32:31;;;;;;;3.90;1.13;;;18.20;56.20;;;;;;5996794;23;20150;-88
2022/01/21 01:35:06;;;;;;;4.45;1.23;;;18.20;56.10;;;;;;6020368;23;20147;-88
2022/01/21 01:38:12;;;;;;;6.70;1.20;;;18.20;55.80;;;;;;5991488;24;20162;-88
2022/01/21 01:40:56;;;;;;;3.20;1.23;;;18.30;55.70;;;;;;5963808;24;20167;-88
2022/01/21 01:51:48;;;;;;;2.90;1.10;;;18.20;56.10;;;;;;5955745;24;20152;-89
2022/01/21 01:54:23;;;;;;;5.07;1.40;;;18.20;56.10;;;;;;5987234;23;20247;-88
2022/01/21 01:56:56;;;;;;;3.95;1.10;;;18.20;56.00;;;;;;5986000;23;20151;-88
2022/01/21 01:59:25;;;;;;;4.35;1.30;;;18.20;55.90;;;;;;5990203;23;20147;-88
2022/01/21 02:01:53;;;;;;;3.33;1.50;;;18.20;56.00;;;;;;5967734;24;20196;-88
2022/01/21 02:04:24;;;;;;;5.22;1.35;;;18.20;56.10;;;;;;5977308;23;20579;-88
2022/01/21 02:07:01;;;;;;;4.70;1.33;;;18.30;55.80;;;;;;6001478;23;20146;-88
2022/01/21 02:09:28;;;;;;;2.22;1.15;;;18.20;55.80;;;;;;5955985;23;20291;-88
2022/01/21 02:11:56;;;;;;;2.83;1.13;;;18.20;55.80;;;;;;5985707;24;20601;-88
2022/01/21 02:14:27;;;;;;;4.68;1.10;;;18.10;55.80;;;;;;5962935;24;20155;-88
2022/01/21 02:21:28;;;;;;;2.80;1.10;;;18.20;55.60;;;;;;5940196;24;20155;-88
2022/01/21 02:22:37;;;;;;;3.55;1.40;;;18.40;55.80;;;;;;5949780;24;20232;-88
2022/01/21 02:25:19;;;;;;;3.88;1.15;;;18.20;55.80;;;;;;5935415;24;20678;-88
2022/01/21 02:27:51;;;;;;;2.40;1.48;;;18.20;55.80;;;;;;5935242;24;20274;-88
2022/01/21 02:30:19;;;;;;;2.75;0.95;;;18.30;55.70;;;;;;5938816;24;20259;-88
2022/01/21 02:32:48;;;;;;;2.83;1.20;;;18.20;55.90;;;;;;6005504;23;20164;-88
2022/01/21 02:35:24;;;;;;;3.35;1.38;;;18.20;55.70;;;;;;6023912;23;20178;-87
2022/01/21 02:37:59;;;;;;;3.70;1.10;;;18.20;55.70;;;;;;6002765;23;20192;-88
2022/01/21 02:40:30;;;;;;;2.22;1.15;;;18.20;55.80;;;;;;6001034;23;20169;-88
2022/01/21 02:44:08;;;;;;;3.08;1.30;;;18.20;55.40;;;;;;6011679;23;20183;-88
2022/01/21 02:49:58;;;;;;;2.42;1.08;;;18.20;55.70;;;;;;6038314;23;20177;-89
2022/01/21 02:53:11;;;;;;;4.50;1.33;;;18.20;55.70;;;;;;5999853;23;20207;-88
2022/01/21 02:56:01;;;;;;;3.38;1.10;;;18.20;55.50;;;;;;5994019;24;20171;-89
2022/01/21 02:59:13;;;;;;;;;;;;;;;;;;;;;
2022/01/21 03:01:56;;;;;;;4.43;1.23;;;18.20;55.30;;;;;;5860817;24;20173;-88
2022/01/21 03:04:51;;;;;;;3.13;1.20;;;18.20;55.70;;;;;;5753300;24;20623;-88
2022/01/21 03:08:10;;;;;;;;;;;;;;;;;;;;;
2022/01/21 03:11:24;;;;;;;3.70;1.20;;;18.30;55.70;;;;;;5752024;24;20161;-89
2022/01/21 03:14:08;;;;;;;2.25;1.08;;;18.20;55.30;;;;;;5715780;25;20575;-88
2022/01/21 03:17:25;;;;;;;6.30;1.63;;;18.20;55.40;;;;;;5683430;25;20254;-88
2022/01/21 03:20:31;;;;;;;2.38;1.00;;;18.20;55.50;;;;;;5718542;25;20240;-89
2022/01/21 03:23:15;;;;;;;2.55;1.33;;;18.20;55.30;;;;;;5694364;25;20177;-89
2022/01/21 03:26:08;;;;;;;6.03;1.10;;;18.20;55.60;;;;;;5682263;25;20226;-89
2022/01/21 03:28:37;;;;;;;2.40;1.25;;;18.20;55.60;;;;;;5744252;24;20243;-89
2022/01/21 03:31:24;;;;;;;1.70;1.13;;;18.10;55.40;;;;;;5811299;24;20160;-89
2022/01/21 03:34:18;;;;;;;2.40;1.25;;;18.20;55.50;;;;;;5833259;24;20182;-89
2022/01/21 03:36:54;;;;;;;3.97;1.05;;;18.20;55.30;;;;;;5805118;24;20564;-88
2022/01/21 03:39:42;;;;;;;3.83;1.45;;;18.20;55.40;;;;;;5783631;24;20160;-89
2022/01/21 03:42:17;;;;;;;4.18;1.17;;;18.20;55.30;;;;;;5792008;24;20159;-88
2022/01/21 03:44:59;;;;;;;3.92;1.30;;;18.20;55.20;;;;;;5811977;24;20233;-88
2022/01/21 03:47:39;;;;;;;3.00;1.35;;;18.20;55.40;;;;;;5883848;24;20204;-88
2022/01/21 03:50:34;;;;;;;;;;;;;;;;;;;;;
2022/01/21 03:53:29;;;;;;;2.20;1.20;;;18.20;55.30;;;;;;5896747;24;20315;-88
2022/01/21 03:56:10;;;;;;;4.95;1.40;;;18.10;55.30;;;;;;5859734;24;20170;-88
2022/01/21 03:59:02;;;;;;;;;;;;;;;;;;;;;
2022/01/21 04:02:00;;;;;;;3.80;1.23;;;18.10;55.60;;;;;;5878139;24;20640;-89
2022/01/21 04:05:04;;;;;;;3.60;1.00;;;18.10;55.40;;;;;;5909543;24;20158;-88
2022/01/21 04:07:49;;;;;;;3.30;1.10;;;18.10;55.40;;;;;;5827839;24;20186;-88
2022/01/21 04:10:29;;;;;;;3.33;1.15;;;18.10;55.60;;;;;;5833609;24;20159;-88
2022/01/21 04:13:31;;;;;;;3.30;1.30;;;18.10;55.50;;;;;;5812625;24;20156;-88
2022/01/21 04:16:13;;;;;;;4.18;1.10;;;18.10;55.50;;;;;;5814088;24;20628;-88
2022/01/21 04:19:22;;;;;;;4.25;1.10;;;18.10;55.20;;;;;;5856487;24;20167;-88
2022/01/21 04:22:01;;;;;;;2.85;1.33;;;18.20;55.30;;;;;;5887406;24;20258;-88
2022/01/21 04:24:59;;;;;;;3.25;1.13;;;18.10;55.10;;;;;;5938377;24;20168;-88
2022/01/21 04:27:52;;;;;;;6.43;1.45;;;18.20;55.40;;;;;;5914775;24;20596;-89
2022/01/21 04:30:46;;;;;;;2.38;1.30;;;18.10;55.30;;;;;;5860429;24;20194;-88
2022/01/21 04:33:19;;;;;;;1.63;0.90;;;18.10;55.30;;;;;;5877467;24;20158;-88
2022/01/21 04:36:18;;;;;;;3.20;1.10;;;18.20;55.20;;;;;;5886694;24;20248;-89
2022/01/21 04:38:55;;;;;;;1.95;1.27;;;18.10;56.00;;;;;;5814722;24;20226;-89
2022/01/21 04:47:17;;;;;;;3.08;1.40;;;18.10;55.40;;;;;;5855227;24;20162;-88
2022/01/21 04:48:28;;;;;;;;;;;;;;;;;;;;;
2022/01/21 04:51:25;;;;;;;1.55;0.93;;;18.10;55.30;;;;;;5832228;24;20652;-89
2022/01/21 04:54:18;;;;;;;2.35;1.00;;;18.10;55.30;;;;;;5799794;24;20200;-89
2022/01/21 04:56:53;;;;;;;2.35;1.00;;;18.10;55.30;;;;;;5806140;24;20164;-89
2022/01/21 04:59:39;;;;;;;2.70;1.05;;;18.20;55.10;;;;;;5828483;24;20164;-88
2022/01/21 05:02:23;;;;;;;2.28;1.00;;;18.10;55.10;;;;;;5794480;24;20164;-89
2022/01/21 05:05:21;;;;;;;3.38;1.25;;;18.10;55.10;;;;;;5832732;24;20162;-89
2022/01/21 05:08:03;;;;;;;2.80;1.40;;;18.10;55.10;;;;;;5859763;24;20220;-89
2022/01/21 05:10:56;;;;;;;1.95;0.90;;;18.10;55.00;;;;;;5779708;24;20204;-88
2022/01/21 05:13:50;;;;;;;3.67;1.20;;;18.10;55.00;;;;;;5664535;25;20167;-89
2022/01/21 05:16:45;;;;;;;2.60;0.93;;;18.10;55.20;;;;;;5720184;25;20163;-88
2022/01/21 05:19:57;;;;;;;1.73;1.10;;;18.10;55.50;;;;;;5696794;25;20181;-88
2022/01/21 05:23:22;;;;;;;2.55;0.90;;;18.00;55.40;;;;;;5654402;25;20251;-89
2022/01/21 05:26:01;;;;;;;3.28;1.40;;;18.10;54.70;;;;;;5735344;24;20247;-89
2022/01/21 05:28:46;;;;;;;1.52;0.90;;;18.10;54.10;;;;;;5809394;24;20214;-89
2022/01/21 05:31:26;;;;;;;2.70;1.08;;;18.20;54.00;;;;;;5737705;24;20162;-89
2022/01/21 05:34:23;;;;;;;3.40;0.95;;;18.20;54.80;;;;;;5752526;25;20165;-89
2022/01/21 05:37:06;;;;;;;1.85;0.80;;;18.20;54.60;;;;;;5752797;25;20165;-89
2022/01/21 05:39:54;;;;;;;2.90;1.17;;;18.20;54.50;;;;;;5726288;25;20465;-89
2022/01/21 05:42:40;;;;;;;2.25;1.17;;;18.20;54.50;;;;;;5727487;25;20170;-89
2022/01/21 05:48:47;;;;;;;2.25;1.10;;;18.20;54.00;;;;;;5726640;25;20276;-89
2022/01/21 05:51:43;;;;;;;2.53;0.95;;;18.20;53.90;;;;;;5688833;25;20162;-89
2022/01/21 05:54:34;;;;;;;1.58;1.00;;;18.20;53.10;;;;;;5699815;25;20159;-89
2022/01/21 05:57:13;;;;;;;2.20;0.90;;;18.30;53.60;;;;;;5701343;25;20159;-88
2022/01/21 06:00:07;;;;;;;1.67;1.00;;;18.30;53.70;;;;;;5647358;25;20184;-89
2022/01/21 06:02:49;;;;;;;1.92;1.10;;;18.20;53.30;;;;;;5676906;25;20489;-89
2022/01/21 06:05:41;;;;;;;1.95;1.05;;;18.30;53.40;;;;;;5695238;25;20199;-89
2022/01/21 06:08:23;;;;;;;1.65;0.82;;;18.30;53.50;;;;;;5747909;25;20193;-89
2022/01/21 06:11:01;;;;;;;1.48;0.73;;;18.30;53.40;;;;;;5811787;24;20158;-88
2022/01/21 06:13:39;;;;;;;2.72;0.77;;;18.30;52.50;;;;;;5823758;24;20186;-88
2022/01/21 06:16:20;;;;;;;3.60;1.02;;;18.40;51.90;;;;;;5812462;24;20168;-88
2022/01/21 06:19:08;;;;;;;1.92;0.95;;;18.30;52.80;;;;;;5776949;24;20234;-88
2022/01/21 06:21:39;;;;;;;2.08;0.77;;;18.40;52.30;;;;;;5749274;24;20217;-89
2022/01/21 06:24:07;;;;;;;1.63;0.73;;;18.40;52.50;;;;;;5765456;24;20173;-88
2022/01/21 06:26:59;;;;;;;1.75;0.90;;;18.30;52.10;;;;;;5777919;24;20166;-89
2022/01/21 06:29:43;;;;;;;2.28;0.90;;;18.40;52.50;;;;;;5773159;24;20219;-89
2022/01/21 06:32:55;;;;;;;1.80;0.93;;;18.40;52.80;;;;;;5851028;24;20171;-89
2022/01/21 06:35:25;;;;;;;1.83;0.90;;;18.40;52.70;;;;;;5828577;24;20215;-89
2022/01/21 06:38:16;;;;;;;1.85;0.82;;;18.40;52.20;;;;;;5803315;24;20159;-89
2022/01/21 06:40:55;;;;;;;1.17;0.82;;;18.40;52.50;;;;;;5776291;24;20533;-89
2022/01/21 06:44:02;;;;;;;2.40;0.82;;;18.40;52.20;;;;;;5722515;24;20174;-89
2022/01/21 06:46:44;;;;;;;1.02;0.85;;;18.40;52.10;;;;;;5839702;24;20632;-88
2022/01/21 06:49:19;;;;;;;1.65;0.90;;;18.40;52.00;;;;;;5810192;24;20645;-89
2022/01/21 06:52:13;;;;;;;1.25;0.90;;;18.40;52.00;;;;;;5801788;24;20157;-88
2022/01/21 06:55:15;;;;;;;2.13;0.80;;;18.40;52.70;;;;;;5826171;24;20161;-89
2022/01/21 06:57:49;;;;;;;1.85;0.98;;;18.40;52.00;;;;;;5802105;24;20711;-88
2022/01/21 07:00:36;;;;;;;1.40;0.60;;;18.40;52.40;;;;;;5826483;24;20180;-89
2022/01/21 07:03:14;;;;;;;1.60;0.80;;;18.40;51.80;;;;;;5799979;24;20160;-88
2022/01/21 07:06:00;;;;;;;1.25;0.80;;;18.40;51.30;;;;;;5790535;24;20216;-89
2022/01/21 07:08:43;;;;;;;2.30;0.73;;;18.50;51.70;;;;;;5771404;24;20197;-89
2022/01/21 07:11:30;;;;;;;1.25;0.80;;;18.40;51.90;;;;;;5777546;24;20223;-89
2022/01/21 07:13:59;;;;;;;2.72;1.08;;;18.50;52.00;;;;;;5792956;24;20202;-89
2022/01/21 07:17:00;;;;;;;1.85;0.90;;;18.40;52.40;;;;;;5808727;24;20211;-89
2022/01/21 07:19:53;;;;;;;1.77;1.00;;;18.40;52.30;;;;;;5852912;24;20166;-88
2022/01/21 07:22:27;;;;;;;1.08;0.90;;;18.40;52.10;;;;;;5802702;24;20300;-89
2022/01/21 07:24:58;;;;;;;1.77;0.90;;;18.40;51.60;;;;;;5729983;25;20169;-88
2022/01/21 07:27:31;;;;;;;0.95;0.73;;;18.40;51.70;;;;;;5757960;24;20163;-88
2022/01/21 07:30:00;;;;;;;1.77;1.00;;;18.40;51.70;;;;;;5751156;24;20169;-88
2022/01/21 07:32:30;;;;;;;2.15;0.90;;;18.40;52.20;;;;;;5773802;24;20180;-88
2022/01/21 07:34:59;;;;;;;0.95;0.70;;;18.40;52.10;;;;;;5738970;24;20162;-88
2022/01/21 07:37:29;;;;;;;1.25;0.80;;;18.40;51.40;;;;;;5825564;24;20220;-88
2022/01/21 07:40:00;;;;;;;1.20;0.73;;;18.50;52.30;;;;;;5824994;24;20881;-88
2022/01/21 07:42:32;;;;;;;1.13;0.70;;;18.40;51.70;;;;;;5826341;24;20159;-88
2022/01/21 07:45:05;;;;;;;1.88;1.10;;;18.40;52.00;;;;;;5826393;24;20224;-86
2022/01/21 07:47:36;;;;;;;1.50;0.73;;;18.40;52.10;;;;;;5840849;24;20206;-88
2022/01/21 07:50:06;;;;;;;1.73;0.73;;;18.40;51.40;;;;;;5893091;24;20167;-88
2022/01/21 07:52:41;;;;;;;3.70;1.00;;;18.40;51.20;;;;;;5923110;24;20151;-88
2022/01/21 07:55:13;;;;;;;1.67;0.85;;;18.40;52.10;;;;;;5984990;23;20160;-88
2022/01/21 07:57:40;;;;;;;2.20;0.70;;;18.40;51.50;;;;;;6006893;23;20176;-88
2022/01/21 08:00:13;;;;;;;1.10;0.82;;;18.40;50.80;;;;;;6037619;23;20181;-88
2022/01/21 08:02:48;;;;;;;1.27;0.88;;;18.40;52.10;;;;;;6030352;23;20157;-88
2022/01/21 08:05:14;;;;;;;1.20;0.70;;;18.40;52.00;;;;;;6008659;23;20157;-89
2022/01/21 08:07:48;;;;;;;0.73;0.70;;;18.40;51.30;;;;;;6029458;23;20175;-88
2022/01/21 08:10:15;;;;;;;0.77;0.60;;;18.40;51.20;;;;;;6021063;23;20235;-88
2022/01/21 08:12:44;;;;;;;1.75;0.90;;;18.50;50.90;;;;;;6087046;23;20159;-88
2022/01/21 08:15:17;;;;;;;0.85;0.82;;;18.60;51.20;;;;;;6088182;23;20145;-88
2022/01/21 08:17:56;;;;;;;;;;;;;;;;;;;;;
2022/01/21 08:20:29;;;;;;;3.40;0.80;;;18.50;49.40;;;;;;6084609;23;20186;-88
2022/01/21 08:23:01;;;;;;;0.88;0.70;;;18.50;49.30;;;;;;6064765;23;20630;-88
2022/01/21 08:25:27;;;;;;;3.20;0.77;;;18.50;49.20;;;;;;6063849;23;20215;-88
2022/01/21 08:28:01;;;;;;;1.80;0.70;;;18.50;49.60;;;;;;6063339;23;20184;-88
2022/01/21 08:30:39;;;;;;;1.17;0.70;;;18.60;49.50;;;;;;6089877;23;20148;-88
2022/01/21 08:33:06;;;;;;;1.40;0.70;;;18.60;50.00;;;;;;6089802;23;20192;-88
2022/01/21 08:35:36;;;;;;;1.88;0.80;;;18.60;50.20;;;;;;6063704;23;20152;-88
2022/01/21 08:38:08;;;;;;;0.90;0.90;;;18.60;49.80;;;;;;6090859;23;20476;-88
2022/01/21 08:40:40;;;;;;;0.82;0.65;;;18.60;50.40;;;;;;6089941;23;20159;-88
2022/01/21 08:43:08;;;;;;;0.77;0.65;;;18.70;49.90;;;;;;6059851;23;20251;-87
2022/01/21 08:45:37;;;;;;;1.83;0.73;;;18.50;50.20;;;;;;6060451;23;20160;-88
2022/01/21 08:48:05;;;;;;;2.08;0.90;;;18.60;49.50;;;;;;6061076;23;20200;-88
2022/01/21 08:50:34;;;;;;;1.38;0.82;;;18.60;50.10;;;;;;6038833;23;20216;-88
2022/01/21 08:53:10;;;;;;;0.60;0.50;;;18.60;50.10;;;;;;6061758;23;20224;-88
2022/01/21 08:55:39;;;;;;;2.72;0.73;;;18.60;49.80;;;;;;6051611;23;20181;-88
2022/01/21 08:58:35;;;;;;;1.75;0.60;;;18.60;50.80;;;;;;6029852;23;20169;-88
2022/01/21 09:01:06;;;;;;;1.98;0.80;;;18.50;50.40;;;;;;6050584;23;20158;-88
2022/01/21 09:03:39;;;;;;;1.48;0.80;;;18.60;51.70;;;;;;5961262;24;20168;-88
2022/01/21 09:06:11;;;;;;;1.80;0.98;;;18.60;49.70;;;;;;5940974;24;20432;-88
2022/01/21 09:11:41;;;;;;;1.70;0.80;;;18.60;50.70;;;;;;5930786;24;20158;-89
2022/01/21 09:14:19;;;;;;;1.63;0.80;;;18.50;51.20;;;;;;5827266;24;20160;-89
2022/01/21 09:16:51;;;;;;;1.20;0.70;;;18.50;51.20;;;;;;5863210;24;20161;-88
2022/01/21 09:19:32;;;;;;;1.80;0.70;;;18.60;50.80;;;;;;5830980;24;20592;-89
2022/01/21 09:22:03;;;;;;;1.05;0.70;;;18.60;50.70;;;;;;5828779;24;20244;-88
2022/01/21 09:24:35;;;;;;;1.15;0.82;;;18.50;49.40;;;;;;5831518;24;20159;-88
2022/01/21 09:27:18;;;;;;;;;;;;;;;;;;;;;
2022/01/21 09:29:59;;;;;;;1.23;0.73;;;18.60;49.50;;;;;;5798702;24;20199;-89
2022/01/21 09:32:35;;;;;;;0.85;0.80;;;18.70;49.40;;;;;;5800407;24;20160;-89
2022/01/21 09:35:16;;;;;;;1.10;0.65;;;18.60;49.60;;;;;;5826457;24;20156;-88
2022/01/21 09:37:44;;;;;;;1.08;0.73;;;18.70;50.20;;;;;;5827520;24;20171;-88
2022/01/21 09:40:11;;;;;;;3.60;1.00;;;18.60;50.20;;;;;;5859210;24;20155;-88
2022/01/21 09:42:38;;;;;;;0.98;0.70;;;18.70;49.50;;;;;;5914626;24;20161;-88
2022/01/21 09:45:09;;;;;;;0.88;0.80;;;18.70;49.80;;;;;;5986272;23;20155;-88
2022/01/21 09:47:44;;;;;;;1.25;0.88;;;18.70;49.70;;;;;;5938845;24;20203;-88
2022/01/21 09:50:14;;;;;;;1.13;0.85;;;18.70;49.70;;;;;;5929991;24;20150;-88
2022/01/21 09:52:45;;;;;;;1.05;0.65;;;18.70;49.40;;;;;;5928379;24;20165;-87
2022/01/21 09:55:12;;;;;;;0.80;0.70;;;18.70;48.30;;;;;;6003124;23;20211;-87
2022/01/21 09:57:40;;;;;;;1.58;0.73;;;18.80;49.70;;;;;;6057901;23;20174;-87
2022/01/21 10:00:07;;;;;;;1.30;0.70;;;18.80;49.10;;;;;;6058851;23;20226;-88
2022/01/21 10:02:33;;;;;;;1.25;0.70;;;18.80;49.70;;;;;;6098035;23;20147;-87
2022/01/21 10:05:01;;;;;;;1.58;0.77;;;18.80;49.10;;;;;;6098318;23;20167;-87
2022/01/21 10:07:29;;;;;;;0.63;0.63;;;18.90;49.80;;;;;;6098941;23;20578;-87
2022/01/21 10:09:57;;;;;;;1.77;0.88;;;18.80;50.10;;;;;;6122957;23;20140;-88
2022/01/21 10:12:27;;;;;;;1.70;0.70;;;18.80;50.00;;;;;;6098083;23;20183;-87
2022/01/21 10:14:55;;;;;;;1.80;0.60;;;18.80;49.50;;;;;;6082539;23;20149;-88
2022/01/21 10:17:24;;;;;;;1.23;0.90;;;18.90;49.60;;;;;;6034019;23;20163;-88
2022/01/21 10:20:21;;;;;;;1.67;0.63;;;18.90;49.60;;;;;;5977814;23;20154;-88
2022/01/21 10:23:08;;;;;;;2.08;0.63;;;18.90;50.10;;;;;;6000729;23;20337;-88
2022/01/21 10:25:37;;;;;;;1.45;0.70;;;18.90;49.30;;;;;;5978389;23;20228;-88
2022/01/21 10:28:12;;;;;;;1.35;0.88;;;18.90;50.10;;;;;;5977949;23;20182;-89
2022/01/21 10:30:39;;;;;;;0.70;0.70;;;18.90;50.00;;;;;;5978200;23;20158;-88
2022/01/21 10:33:22;;;;;;;0.80;0.80;;;18.90;50.00;;;;;;5978084;23;20538;-88
2022/01/21 10:35:51;;;;;;;0.80;0.70;;;18.90;49.60;;;;;;5977724;23;20155;-88
2022/01/21 10:38:23;;;;;;;0.88;0.80;;;18.80;49.10;;;;;;6001833;23;20146;-88
2022/01/21 10:40:53;;;;;;;1.25;0.70;;;18.90;49.50;;;;;;5978877;23;20178;-88
2022/01/21 10:43:21;;;;;;;0.93;0.63;;;18.90;49.50;;;;;;5977288;23;20178;-88
2022/01/21 10:45:58;;;;;;;0.85;0.63;;;18.90;49.80;;;;;;6044559;23;20152;-89
2022/01/21 10:48:52;;;;;;;1.23;0.90;;;18.90;49.70;;;;;;6062268;23;20201;-88
2022/01/21 10:51:25;;;;;;;1.58;0.70;;;18.90;49.70;;;;;;6130894;23;20190;-88
2022/01/21 10:53:55;;;;;;;1.52;1.00;;;18.80;49.20;;;;;;6098155;23;20165;-87
2022/01/21 10:56:26;;;;;;;1.00;0.80;;;18.90;48.90;;;;;;6099687;23;20144;-88
2022/01/21 10:59:15;;;;;;;0.60;0.50;;;19.00;49.20;;;;;;6099159;23;20144;-88
2022/01/21 11:01:43;;;;;;;0.80;0.73;;;19.00;49.80;;;;;;6011365;23;20157;-88
2022/01/21 11:04:13;;;;;;;1.90;0.75;;;19.00;48.90;;;;;;6057465;23;20158;-88
2022/01/21 11:06:50;;;;;;;0.85;0.60;;;18.90;49.00;;;;;;6082442;23;20168;-88
2022/01/21 11:09:22;;;;;;;0.80;0.68;;;19.00;49.50;;;;;;6082805;23;20173;-88
2022/01/21 11:12:07;;;;;;;1.75;0.75;;;19.00;49.10;;;;;;6082738;23;20220;-89
2022/01/21 11:14:34;;;;;;;1.77;0.60;;;19.00;49.00;;;;;;6079568;23;20612;-88
2022/01/21 11:17:07;;;;;;;0.77;0.65;;;19.00;49.00;;;;;;6082281;23;20153;-89
2022/01/21 11:19:39;;;;;;;1.25;0.50;;;19.00;48.50;;;;;;6082210;23;20155;-88
2022/01/21 11:22:07;;;;;;;0.98;0.65;;;19.00;48.90;;;;;;6058540;23;20209;-89
2022/01/21 11:24:49;;;;;;;2.05;0.82;;;19.00;48.60;;;;;;6054049;23;20161;-88
2022/01/21 11:27:17;;;;;;;0.98;0.77;;;19.10;48.70;;;;;;6052871;23;20158;-89
2022/01/21 11:29:45;;;;;;;1.25;0.60;;;19.00;49.60;;;;;;6053586;23;20134;-88
2022/01/21 11:32:17;;;;;;;1.05;0.68;;;19.00;48.60;;;;;;6070439;23;20152;-89
2022/01/21 11:34:43;;;;;;;0.70;0.70;;;19.00;48.70;;;;;;6062243;23;20156;-88
2022/01/21 11:37:14;;;;;;;1.00;0.60;;;19.00;49.70;;;;;;6063476;23;20153;-88
2022/01/21 11:39:42;;;;;;;2.17;0.80;;;19.00;48.90;;;;;;6063778;23;20156;-88
2022/01/21 11:42:13;;;;;;;1.38;0.60;;;19.00;49.30;;;;;;6062998;23;20157;-88
2022/01/21 11:44:52;;;;;;;1.08;0.60;;;19.00;48.80;;;;;;6062133;23;20589;-88
2022/01/21 11:47:28;;;;;;;1.17;0.80;;;19.00;48.40;;;;;;6060238;23;20211;-88
2022/01/21 11:50:01;;;;;;;1.45;0.60;;;19.10;49.00;;;;;;6064226;23;20208;-88
2022/01/21 11:52:46;;;;;;;0.80;0.57;;;19.10;48.90;;;;;;6060962;23;20224;-87
2022/01/21 11:55:35;;;;;;;0.80;0.68;;;19.10;48.90;;;;;;6059285;23;20137;-87
2022/01/21 11:58:22;;;;;;;0.65;0.60;;;19.10;48.70;;;;;;6055805;23;20186;-87
2022/01/21 12:00:49;;;;;;;0.85;0.68;;;19.00;48.50;;;;;;6032240;23;20150;-88
2022/01/21 12:03:16;;;;;;;0.80;0.60;;;19.10;48.50;;;;;;6073039;23;20177;-87
2022/01/21 12:05:42;;;;;;;1.90;0.60;;;19.10;48.50;;;;;;6085131;23;20157;-89
2022/01/21 12:08:11;;;;;;;0.70;0.63;;;19.10;47.70;;;;;;6107959;23;20201;-87
2022/01/21 12:10:42;;;;;;;1.13;0.60;;;19.10;47.40;;;;;;6084518;23;20141;-87
2022/01/21 12:13:14;;;;;;;1.75;0.75;;;19.20;48.40;;;;;;6085378;23;20153;-87
2022/01/21 12:16:17;;;;;;;1.40;0.60;;;19.20;48.00;;;;;;6091245;23;20158;-87
2022/01/21 12:21:33;;;;;;;0.73;0.60;;;19.20;45.90;;;;;;6138439;23;20147;-89
2022/01/21 12:24:05;;;;;;;1.27;0.70;;;19.10;46.30;;;;;;6113502;23;20239;-88
2022/01/21 12:26:53;;;;;;;0.93;0.52;;;19.20;46.60;;;;;;6032753;23;20160;-90
2022/01/21 12:29:26;;;;;;;0.93;0.70;;;19.20;44.00;;;;;;6055058;23;20184;-90
2022/01/21 12:32:13;;;;;;;0.93;0.70;;;19.20;44.50;;;;;;6061477;23;20164;-89
2022/01/21 12:35:02;;;;;;;1.83;0.82;;;19.20;43.90;;;;;;5986145;23;20157;-88
2022/01/21 12:39:05;;;;;;;1.30;0.75;;;19.20;44.10;;;;;;6026979;23;20179;-88
2022/01/21 12:41:01;;;;;;;0.85;0.60;;;19.20;44.50;;;;;;6050465;23;20187;-90
2022/01/21 12:43:40;;;;;;;1.55;0.75;;;19.10;45.40;;;;;;5986141;23;20158;-89
2022/01/21 12:46:14;;;;;;;0.98;0.50;;;19.10;42.60;;;;;;6023584;23;20622;-91
2022/01/21 12:48:47;;;;;;;0.82;0.70;;;19.00;44.10;;;;;;5999248;23;20202;-89
2022/01/21 12:56:50;;;;;;;0.88;0.70;;;19.00;47.70;;;;;;5986346;23;20258;-87
2022/01/21 12:59:18;;;;;;;1.15;0.50;;;19.00;47.00;;;;;;6028783;23;20158;-89
2022/01/21 13:01:47;;;;;;;1.10;0.90;;;19.00;45.40;;;;;;6028763;23;20165;-87
2022/01/21 13:04:30;;;;;;;1.13;0.70;;;19.10;46.60;;;;;;6006761;23;20203;-87
2022/01/21 13:07:01;;;;;;;1.73;0.60;;;19.10;45.40;;;;;;6030641;23;20168;-87
2022/01/21 13:10:01;;;;;;;1.38;0.80;;;19.00;46.30;;;;;;6030217;23;20237;-88
2022/01/21 13:12:58;;;;;;;2.58;0.70;;;19.00;48.30;;;;;;6029313;23;20296;-88
2022/01/21 13:16:16;;;;;;;0.88;0.77;;;19.00;46.70;;;;;;6032493;23;20213;-90
2022/01/21 13:18:49;;;;;;;1.92;0.70;;;19.00;48.10;;;;;;5954223;24;20152;-87
2022/01/21 13:21:21;;;;;;;0.93;0.60;;;19.00;47.50;;;;;;5982470;23;20187;-89
2022/01/21 13:24:25;;;;;;;0.68;0.50;;;19.00;47.90;;;;;;6035321;23;20193;-89
2022/01/21 13:26:53;;;;;;;0.90;0.60;;;18.90;48.40;;;;;;6037900;23;20157;-88
2022/01/21 13:29:53;;;;;;;0.75;0.50;;;19.00;48.00;;;;;;6033884;23;20189;-91
2022/01/21 13:32:30;;;;;;;1.15;0.68;;;19.00;46.60;;;;;;5998743;23;20245;-89
2022/01/21 13:35:28;;;;;;;1.92;0.65;;;19.00;46.90;;;;;;5999820;24;20165;-90
2022/01/21 13:38:12;;;;;;;1.05;0.70;;;19.00;47.30;;;;;;5991672;24;20200;-88
2022/01/21 13:40:42;;;;;;;1.17;0.60;;;19.10;47.40;;;;;;5962625;24;20339;-88
2022/01/21 13:43:19;;;;;;;0.80;0.70;;;19.00;46.60;;;;;;5962846;24;20155;-88
2022/01/21 13:46:00;;;;;;;0.82;0.65;;;19.00;47.00;;;;;;5962630;24;20154;-88
2022/01/21 13:48:26;;;;;;;0.65;0.50;;;19.00;46.80;;;;;;5965891;24;20223;-88
2022/01/21 13:50:58;;;;;;;0.80;0.60;;;19.00;47.30;;;;;;5962396;24;20191;-88
2022/01/21 13:53:49;;;;;;;0.73;0.50;;;19.00;47.60;;;;;;5941289;24;20160;-88
2022/01/21 13:56:48;;;;;;;1.05;0.60;;;19.00;46.80;;;;;;6007415;23;20161;-89
2022/01/21 13:59:42;;;;;;;1.00;0.50;;;19.00;47.00;;;;;;5997983;23;20412;-88
2022/01/21 14:02:14;;;;;;;1.00;0.70;;;19.00;48.00;;;;;;5969258;23;20159;-89
2022/01/21 14:04:53;;;;;;;1.20;0.80;;;19.00;46.80;;;;;;5972016;23;20246;-89
2022/01/21 14:07:27;;;;;;;0.95;0.55;;;19.00;48.10;;;;;;5972500;23;20241;-88
2022/01/21 14:10:01;;;;;;;1.13;0.70;;;19.00;46.40;;;;;;5938271;24;20151;-88
2022/01/21 14:12:37;;;;;;;0.93;0.70;;;19.10;46.40;;;;;;5943461;24;20161;-88
2022/01/21 14:15:08;;;;;;;1.08;0.60;;;19.10;46.70;;;;;;5935897;24;20169;-88
2022/01/21 14:17:49;;;;;;;0.60;0.57;;;19.20;46.50;;;;;;5884965;24;20655;-88
2022/01/21 14:20:32;;;;;;;;;;;;;;;;;;;;;
2022/01/21 14:23:00;;;;;;;1.60;0.70;;;19.30;46.50;;;;;;5874479;24;20157;-87
2022/01/21 14:25:31;;;;;;;2.03;0.80;;;19.30;46.60;;;;;;5942875;24;20159;-88
2022/01/21 14:27:59;;;;;;;0.73;0.50;;;19.20;46.80;;;;;;5965051;23;20184;-87
2022/01/21 14:30:30;;;;;;;1.02;0.60;;;19.20;47.00;;;;;;5942618;24;20182;-87
2022/01/21 14:33:17;;;;;;;;;;;;;;;;;;;;;
2022/01/21 14:56:45;;;;;;;;;;;;;;;;;;;;;
2022/01/21 14:59:15;;;;;;;2.15;0.70;;;19.10;48.30;;;;;;6010910;23;20269;-88
2022/01/21 15:02:04;;;;;;;0.60;0.50;;;19.20;47.00;;;;;;5966415;24;20155;-87
2022/01/21 15:04:38;;;;;;;0.68;0.68;;;19.20;47.00;;;;;;5993326;24;20144;-87
2022/01/21 15:07:17;;;;;;;1.13;0.60;;;19.20;46.50;;;;;;5991353;24;20158;-87
2022/01/21 15:09:48;;;;;;;0.75;0.65;;;19.20;47.40;;;;;;5921290;24;20382;-87
2022/01/21 15:15:44;;;;;;;0.93;0.50;;;19.20;46.60;;;;;;6005369;23;20625;-87
2022/01/21 15:18:20;;;;;;;0.70;0.70;;;19.20;47.50;;;;;;5980946;23;20138;-86
2022/01/21 15:20:50;;;;;;;1.55;0.68;;;19.10;47.10;;;;;;5945348;24;20244;-88
2022/01/21 15:23:21;;;;;;;2.33;0.80;;;19.10;47.80;;;;;;5966694;24;20156;-89
2022/01/21 15:25:50;;;;;;;1.27;0.80;;;19.10;46.90;;;;;;5912853;24;20168;-89